This is the latest recevied weather packets stored in our database for station/object VE1AIC-4. If no packets are shown the sender has not sent any weather packets the latest 10 day(s).
| Time | Temp. | Humidity | Pressure | Rain* | Wind** | Luminosity | Snow |
|---|---|---|---|---|---|---|---|
| 1777522564 | 3.33° C | 84% | 1018.1 hPa | 0 mm | - | 0 W/m² | - |
| 1777517738 | 3.89° C | 82% | 1018.2 hPa | 0 mm | - | 0 W/m² | - |
| 1777515321 | 5° C | 81% | 1018.1 hPa | 0 mm | - | 0 W/m² | - |
| 1777512447 | 5.56° C | 77% | 1018.5 hPa | 0 mm | - | 0 W/m² | - |
| 1777511135 | 5.56° C | 76% | 1018.7 hPa | 0 mm | - | 0 W/m² | - |
| 1777509989 | 6.11° C | 74% | 1018.6 hPa | 0 mm | - | 0 W/m² | - |
| 1777502145 | 8.33° C | 68% | 1017.4 hPa | 0 mm | - | 23 W/m² | - |
| 1777497960 | 10° C | 61% | 1017.2 hPa | 0 mm | - | 100 W/m² | - |
| 1777493145 | 10.56° C | 60% | 1017.5 hPa | 0 mm | - | 295 W/m² | - |
| 1777489535 | 10° C | 60% | 1018 hPa | 0 mm | - | 241 W/m² | - |
| 1777488434 | 9.44° C | 61% | 1018.4 hPa | 0 mm | - | 319 W/m² | - |
| 1777487793 | 9.44° C | 62% | 1018.4 hPa | 0 mm | - | 292 W/m² | - |
| 1777478741 | 6.67° C | 74% | 1019.9 hPa | 0 mm | - | 608 W/m² | - |
| 1777476323 | 5.56° C | 76% | 1020.5 hPa | 0 mm | - | 474 W/m² | - |
| 1777475794 | 6.11° C | 77% | 1020.7 hPa | 0 mm | - | 540 W/m² | - |
| 1777468572 | 4.44° C | 79% | 1021.4 hPa | 0 mm | - | 548 W/m² | - |
| 1777467922 | 4.44° C | 79% | 1021.4 hPa | 0 mm | - | 596 W/m² | - |
| 1777464920 | 3.89° C | 83% | 1021.3 hPa | 0 mm | - | 284 W/m² | - |
| 1777464355 | 3.33° C | 84% | 1021.4 hPa | 0 mm | - | 259 W/m² | - |
| 1777461324 | 2.78° C | 85% | 1021.4 hPa | 0 mm | - | 168 W/m² | - |
| 1777458345 | 1.67° C | 89% | 1021 hPa | 0 mm | - | 68 W/m² | - |
| 1777452391 | 1.67° C | 90% | 1020.3 hPa | 0 mm | - | 0 W/m² | - |
| 1777450600 | 1.67° C | 90% | 1020.6 hPa | 0 mm | - | 0 W/m² | - |
| 1777450037 | 1.67° C | 90% | 1020.6 hPa | 0 mm | - | 0 W/m² | - |
| 1777449326 | 2.22° C | 89% | 1020.6 hPa | 0 mm | - | 0 W/m² | - |
* Rain latest hour (hover to see other rain measurements)
** Current wind speed in m/s (hover to see current wind gust speed)